createdAt,value
2019-04-16T00:02:48.533Z,3.30
2019-04-16T00:05:27.438Z,2.93
2019-04-16T00:07:59.695Z,3.30
2019-04-16T00:10:48.164Z,3.83
2019-04-16T00:13:40.845Z,2.60
2019-04-16T00:16:12.968Z,5.17
2019-04-16T00:18:56.786Z,3.60
2019-04-16T00:21:42.026Z,3.23
2019-04-16T00:24:21.701Z,3.80
2019-04-16T00:26:58.063Z,4.50
2019-04-16T00:29:26.160Z,3.70
2019-04-16T00:32:00.137Z,4.67
2019-04-16T00:34:31.202Z,5.63
2019-04-16T00:37:01.855Z,5.50
2019-04-16T00:39:32.621Z,4.20
2019-04-16T00:42:03.680Z,4.20
2019-04-16T00:44:34.354Z,2.77
2019-04-16T00:47:05.260Z,3.87
2019-04-16T00:49:37.895Z,3.33
2019-04-16T00:52:08.351Z,4.70
2019-04-16T00:54:42.133Z,4.83
2019-04-16T00:57:11.542Z,4.37
2019-04-16T00:59:43.028Z,3.93
2019-04-16T01:02:13.987Z,3.73
2019-04-16T01:04:45.717Z,4.87
2019-04-16T01:07:17.556Z,3.87
2019-04-16T01:09:48.148Z,3.47
2019-04-16T01:12:18.992Z,3.40
2019-04-16T01:14:49.715Z,3.20
2019-04-16T01:17:20.769Z,2.97
2019-04-16T01:19:51.553Z,3.93
2019-04-16T01:22:22.373Z,4.00
2019-04-16T01:24:53.062Z,3.83
2019-04-16T01:27:32.388Z,3.10
2019-04-16T01:30:05.929Z,4.37
2019-04-16T01:33:03.707Z,5.50
2019-04-16T01:35:56.095Z,3.00
2019-04-16T01:38:34.576Z,3.20
2019-04-16T01:41:07.391Z,5.03
2019-04-16T01:43:38.045Z,3.67
2019-04-16T01:46:08.877Z,4.00
2019-04-16T01:48:39.803Z,3.07
2019-04-16T01:51:12.577Z,3.93
2019-04-16T01:53:42.814Z,4.83
2019-04-16T01:56:13.481Z,4.40
2019-04-16T01:58:44.190Z,3.70
2019-04-16T02:01:14.981Z,3.70
2019-04-16T02:03:48.655Z,2.80
2019-04-16T02:06:18.087Z,3.53
2019-04-16T02:08:48.852Z,3.30
2019-04-16T02:11:19.694Z,3.23
2019-04-16T02:13:50.482Z,5.47
2019-04-16T02:16:22.411Z,4.57
2019-04-16T02:18:53.894Z,2.50
2019-04-16T02:21:24.674Z,3.40
2019-04-16T02:23:55.606Z,4.70
2019-04-16T02:26:26.313Z,3.70
2019-04-16T02:28:58.944Z,4.03
2019-04-16T02:31:30.390Z,3.20
2019-04-16T02:34:01.423Z,3.23
2019-04-16T02:36:32.155Z,4.07
2019-04-16T02:39:03.071Z,3.03
2019-04-16T02:41:35.158Z,4.13
2019-04-16T02:44:05.955Z,2.50
2019-04-16T02:46:36.842Z,4.73
2019-04-16T02:49:07.771Z,4.37
2019-04-16T02:51:45.920Z,2.90
2019-04-16T02:54:32.349Z,4.70
2019-04-16T02:57:34.778Z,4.50
2019-04-16T03:00:17.571Z,4.50
2019-04-16T03:02:55.480Z,2.20
2019-04-16T03:05:35.120Z,3.53
2019-04-16T03:08:06.239Z,4.20
2019-04-16T03:10:37.105Z,3.50
2019-04-16T03:13:07.896Z,2.33
2019-04-16T03:16:06.047Z,3.30
2019-04-16T03:18:56.014Z,2.60
2019-04-16T03:21:27.422Z,4.40
2019-04-16T03:23:59.035Z,2.83
2019-04-16T03:26:29.944Z,4.00
2019-04-16T03:29:00.665Z,2.40
2019-04-16T03:31:31.406Z,3.67
2019-04-16T03:34:02.141Z,5.03
2019-04-16T03:36:32.919Z,2.80
2019-04-16T03:39:05.871Z,4.00
2019-04-16T03:41:36.632Z,2.97
2019-04-16T03:44:07.320Z,4.50
2019-04-16T03:46:40.073Z,3.07
2019-04-16T03:49:10.330Z,4.27
2019-04-16T03:51:41.008Z,3.90
2019-04-16T03:54:11.746Z,2.50
2019-04-16T03:56:42.737Z,2.40
2019-04-16T03:59:13.434Z,3.67
2019-04-16T04:01:46.023Z,3.30
2019-04-16T04:04:17.599Z,4.30
2019-04-16T04:06:48.534Z,2.70
2019-04-16T04:09:22.240Z,3.47
2019-04-16T04:11:51.506Z,2.73
2019-04-16T04:14:23.538Z,3.93
2019-04-16T04:16:54.343Z,3.13
2019-04-16T04:19:25.905Z,4.60
2019-04-16T04:21:56.725Z,4.17
2019-04-16T04:24:28.455Z,3.33
2019-04-16T04:26:59.939Z,3.17
2019-04-16T04:29:30.717Z,3.77
2019-04-16T04:32:03.356Z,2.67
2019-04-16T04:34:34.370Z,2.87
2019-04-16T04:37:05.229Z,4.20
2019-04-16T04:39:36.067Z,2.63
2019-04-16T04:42:06.590Z,4.60
2019-04-16T04:44:37.461Z,3.40
2019-04-16T04:47:08.265Z,2.70
2019-04-16T04:49:39.204Z,4.00
2019-04-16T04:52:13.648Z,3.50
2019-04-16T04:54:42.413Z,5.70
2019-04-16T04:57:13.233Z,3.10
2019-04-16T04:59:43.981Z,3.80
2019-04-16T05:02:15.757Z,3.37
2019-04-16T05:04:54.043Z,4.33
2019-04-16T05:07:25.740Z,3.97
2019-04-16T05:09:57.117Z,3.30
2019-04-16T05:12:27.811Z,4.50
2019-04-16T05:14:58.959Z,4.07
2019-04-16T05:17:30.724Z,3.40
2019-04-16T05:20:01.601Z,2.90
2019-04-16T05:22:33.164Z,3.97
2019-04-16T05:25:04.394Z,4.40
2019-04-16T05:27:40.109Z,2.73
2019-04-16T05:30:07.778Z,3.40
2019-04-16T05:32:38.579Z,6.27
2019-04-16T05:35:10.799Z,3.80
2019-04-16T05:37:41.781Z,3.00
2019-04-16T05:40:12.470Z,6.20
2019-04-16T05:42:43.313Z,4.97
2019-04-16T05:45:14.697Z,4.27
2019-04-16T05:47:48.715Z,4.10
2019-04-16T05:50:18.809Z,4.20
2019-04-16T05:52:49.542Z,4.23
2019-04-16T05:55:42.013Z,4.30
2019-04-16T05:58:12.804Z,3.90
2019-04-16T06:00:52.617Z,5.20
2019-04-16T06:03:23.391Z,5.30
2019-04-16T06:05:56.320Z,4.80
2019-04-16T06:08:26.494Z,4.20
2019-04-16T06:10:57.640Z,4.30
2019-04-16T06:13:50.236Z,3.90
2019-04-16T06:16:26.599Z,3.23
2019-04-16T06:19:15.933Z,3.27
2019-04-16T06:22:06.640Z,5.40
2019-04-16T06:24:56.162Z,3.87
2019-04-16T06:27:32.050Z,5.10
2019-04-16T06:30:20.339Z,7.27
2019-04-16T06:32:56.978Z,4.30
2019-04-16T06:35:45.668Z,5.43
2019-04-16T06:38:23.421Z,5.53
2019-04-16T06:41:40.843Z,4.03
2019-04-16T06:44:04.040Z,3.50
2019-04-16T06:47:02.282Z,5.90
2019-04-16T06:50:01.845Z,3.90
2019-04-16T06:52:57.876Z,5.33
2019-04-16T06:55:43.181Z,4.20
2019-04-16T06:58:49.711Z,5.07
2019-04-16T07:01:42.031Z,6.93
2019-04-16T07:04:23.035Z,4.20
2019-04-16T07:07:11.074Z,3.17
2019-04-16T07:09:45.995Z,4.37
2019-04-16T07:12:21.803Z,3.40
2019-04-16T07:14:52.443Z,6.03
2019-04-16T07:17:23.096Z,4.23
2019-04-16T07:19:53.999Z,3.63
2019-04-16T07:22:24.738Z,4.30
2019-04-16T07:24:56.597Z,3.23
2019-04-16T07:27:38.392Z,3.27
2019-04-16T07:30:14.553Z,2.77
2019-04-16T07:33:14.164Z,5.60
2019-04-16T07:35:50.591Z,3.23
2019-04-16T07:38:26.436Z,4.30
2019-04-16T07:41:17.231Z,3.23
2019-04-16T07:44:07.728Z,5.63
2019-04-16T07:46:44.219Z,4.13
2019-04-16T07:49:36.920Z,6.60
2019-04-16T07:52:29.644Z,4.03
2019-04-16T07:55:23.771Z,3.77
2019-04-16T07:57:55.869Z,4.33
2019-04-16T08:00:27.671Z,4.23
2019-04-16T08:02:58.358Z,5.20
2019-04-16T08:05:29.073Z,6.93
2019-04-16T08:07:59.972Z,4.10
2019-04-16T08:10:30.757Z,6.83
2019-04-16T08:13:14.972Z,4.30
2019-04-16T08:15:45.731Z,6.00
2019-04-16T08:18:16.619Z,6.17
2019-04-16T08:21:00.615Z,4.10
2019-04-16T08:23:39.316Z,7.43
2019-04-16T08:26:12.950Z,4.80
2019-04-16T08:28:43.030Z,6.57
2019-04-16T08:31:16.722Z,5.20
2019-04-16T08:33:47.413Z,5.33
2019-04-16T08:36:18.495Z,4.13
2019-04-16T08:38:49.475Z,5.00
2019-04-16T08:41:21.442Z,4.00
2019-04-16T08:43:52.429Z,3.90
2019-04-16T08:46:23.319Z,3.63
2019-04-16T08:48:54.628Z,1.87
2019-04-16T08:51:30.873Z,2.90
2019-04-16T08:53:58.699Z,2.03
2019-04-16T08:56:29.486Z,3.10
2019-04-16T08:59:01.397Z,2.60
2019-04-16T09:01:33.130Z,1.90
2019-04-16T09:04:04.093Z,1.50
2019-04-16T09:06:34.685Z,1.57
2019-04-16T09:09:25.808Z,1.83
2019-04-16T09:12:00.120Z,1.80
2019-04-16T09:14:32.771Z,3.63
2019-04-16T09:17:31.519Z,3.97
2019-04-16T09:20:06.962Z,2.37
2019-04-16T09:22:48.988Z,2.50
2019-04-16T09:25:48.091Z,2.50
2019-04-16T09:28:26.553Z,1.83
2019-04-16T09:31:18.742Z,2.63
2019-04-16T09:33:57.324Z,2.73
2019-04-16T09:36:35.135Z,2.10
2019-04-16T09:39:27.003Z,1.93
2019-04-16T09:41:57.700Z,2.40
2019-04-16T09:44:31.063Z,1.90
2019-04-16T09:47:01.018Z,3.60
2019-04-16T09:49:34.439Z,2.07
2019-04-16T09:52:04.364Z,2.20
2019-04-16T09:54:35.244Z,3.03
2019-04-16T09:57:06.901Z,1.30
2019-04-16T09:59:47.702Z,2.20
2019-04-16T10:02:23.496Z,1.87
2019-04-16T10:04:54.372Z,1.60
2019-04-16T10:07:25.249Z,1.60
2019-04-16T10:09:56.048Z,2.03
2019-04-16T10:12:26.830Z,1.63
2019-04-16T10:14:57.671Z,2.13
2019-04-16T10:17:28.557Z,2.03
2019-04-16T10:19:59.391Z,1.83
2019-04-16T10:22:30.494Z,1.40
2019-04-16T10:25:12.771Z,1.47
2019-04-16T10:27:45.925Z,1.07
2019-04-16T10:30:20.569Z,1.30
2019-04-16T10:32:51.415Z,1.53
2019-04-16T10:35:22.449Z,1.90
2019-04-16T10:37:53.481Z,1.07
2019-04-16T10:40:43.054Z,1.37
2019-04-16T10:43:43.882Z,0.90
2019-04-16T10:46:21.703Z,1.27
2019-04-16T10:49:16.492Z,1.17
2019-04-16T10:51:58.410Z,0.87
2019-04-16T10:54:43.441Z,1.10
2019-04-16T10:57:42.139Z,1.10
2019-04-16T11:00:25.934Z,1.00
2019-04-16T11:03:06.743Z,0.60
2019-04-16T11:05:42.166Z,1.37
2019-04-16T11:08:13.426Z,1.33
2019-04-16T11:10:44.058Z,1.20
2019-04-16T11:13:33.668Z,0.90
2019-04-16T11:16:10.504Z,1.30
2019-04-16T11:18:41.504Z,1.40
2019-04-16T11:21:12.372Z,1.43
2019-04-16T11:23:43.285Z,0.70
2019-04-16T11:26:15.290Z,0.80
2019-04-16T11:28:45.902Z,0.87
2019-04-16T11:31:19.765Z,0.70
2019-04-16T11:33:50.557Z,0.90
2019-04-16T11:36:21.273Z,1.10
2019-04-16T11:38:51.809Z,1.00
2019-04-16T11:41:22.375Z,1.20
2019-04-16T11:43:53.158Z,0.97
2019-04-16T11:46:24.121Z,0.87
2019-04-16T11:48:55.571Z,1.27
2019-04-16T11:51:26.220Z,0.80
2019-04-16T11:53:56.937Z,1.07
2019-04-16T11:56:27.716Z,0.60
2019-04-16T11:58:58.323Z,0.87
2019-04-16T12:01:50.726Z,0.93
2019-04-16T12:04:38.872Z,1.73
2019-04-16T12:07:46.878Z,0.70
2019-04-16T12:10:40.592Z,0.90
2019-04-16T12:13:28.957Z,0.90
2019-04-16T12:16:13.878Z,1.07
2019-04-16T12:18:59.340Z,1.73
2019-04-16T12:21:54.866Z,1.20
2019-04-16T12:24:43.550Z,0.80
2019-04-16T12:27:32.003Z,0.60
2019-04-16T12:30:21.665Z,0.80
2019-04-16T12:33:14.620Z,1.23
2019-04-16T12:36:04.514Z,1.17
2019-04-16T12:38:46.662Z,0.80
2019-04-16T12:41:31.791Z,1.00
2019-04-16T12:44:24.089Z,1.10
2019-04-16T12:47:19.754Z,1.73
2019-04-16T12:50:12.144Z,1.03
2019-04-16T12:53:10.861Z,1.33
2019-04-16T12:56:05.952Z,1.70
2019-04-16T12:58:54.153Z,0.67
2019-04-16T13:01:46.052Z,1.27
2019-04-16T13:04:38.515Z,0.70
2019-04-16T13:07:15.728Z,0.83
2019-04-16T13:10:04.206Z,0.70
2019-04-16T13:12:52.490Z,1.10
2019-04-16T13:15:45.847Z,1.20
2019-04-16T13:18:35.476Z,0.80
2019-04-16T13:21:15.060Z,1.00
2019-04-16T13:24:13.890Z,1.40
2019-04-16T13:27:04.144Z,0.90
2019-04-16T13:29:34.940Z,1.33
2019-04-16T13:32:05.674Z,1.13
2019-04-16T13:34:36.555Z,0.90
2019-04-16T13:37:07.356Z,0.90
2019-04-16T13:39:59.295Z,0.97
2019-04-16T13:42:28.370Z,0.97
2019-04-16T13:45:17.128Z,1.30
2019-04-16T13:47:48.628Z,1.70
2019-04-16T13:50:44.162Z,1.10
2019-04-16T13:53:33.303Z,1.13
2019-04-16T13:56:25.838Z,0.70
2019-04-16T13:59:02.486Z,0.80
2019-04-16T14:01:39.252Z,1.00
2019-04-16T14:04:09.208Z,1.50
2019-04-16T14:06:39.866Z,1.10
2019-04-16T14:09:10.885Z,1.17
2019-04-16T14:11:41.882Z,1.07
2019-04-16T14:14:17.401Z,1.00
2019-04-16T14:16:45.498Z,1.23
2019-04-16T14:19:16.271Z,1.10
2019-04-16T14:21:46.875Z,0.70
2019-04-16T14:24:17.666Z,1.00
2019-04-16T14:26:48.366Z,0.93
2019-04-16T14:29:18.894Z,0.73
2019-04-16T14:31:49.633Z,0.83
2019-04-16T14:34:29.896Z,1.00
2019-04-16T14:37:00.721Z,0.80
2019-04-16T14:39:35.678Z,1.00
2019-04-16T14:42:06.350Z,0.80
2019-04-16T14:44:41.458Z,1.00
2019-04-16T14:47:12.260Z,1.07
2019-04-16T14:49:44.049Z,1.00
2019-04-16T14:52:14.887Z,0.87
2019-04-16T14:54:54.675Z,0.93
2019-04-16T14:57:25.473Z,1.00
2019-04-16T15:00:09.643Z,1.23
2019-04-16T15:02:44.571Z,0.90
2019-04-16T15:05:31.574Z,0.90
2019-04-16T15:08:33.476Z,0.90
2019-04-16T15:11:21.887Z,0.80
2019-04-16T15:14:09.307Z,1.00
2019-04-16T15:16:44.617Z,1.00
2019-04-16T15:19:34.225Z,1.17
2019-04-16T15:22:21.207Z,1.03
2019-04-16T15:25:11.359Z,1.00
2019-04-16T15:27:59.933Z,1.40
2019-04-16T15:30:45.638Z,1.10
2019-04-16T15:33:38.807Z,1.43
2019-04-16T15:36:29.443Z,0.97
2019-04-16T15:39:12.287Z,1.00
2019-04-16T15:42:01.662Z,1.23
2019-04-16T15:44:52.714Z,1.37
2019-04-16T15:47:42.937Z,2.07
2019-04-16T15:50:35.216Z,1.00
2019-04-16T15:53:34.781Z,0.90
2019-04-16T15:56:18.886Z,1.40
2019-04-16T15:58:59.750Z,0.97
2019-04-16T16:02:02.138Z,0.80
2019-04-16T16:04:43.098Z,0.80
2019-04-16T16:07:16.719Z,1.00
2019-04-16T16:10:12.515Z,1.30
2019-04-16T16:12:40.485Z,0.90
2019-04-16T16:15:11.352Z,1.17
2019-04-16T16:17:42.265Z,1.20
2019-04-16T16:20:13.338Z,0.80
2019-04-16T16:22:44.149Z,0.97
2019-04-16T16:25:15.012Z,0.80
2019-04-16T16:27:47.143Z,0.90
2019-04-16T16:30:18.078Z,1.23
2019-04-16T16:32:48.649Z,0.80
2019-04-16T16:35:19.345Z,1.53
2019-04-16T16:37:50.012Z,1.90
2019-04-16T16:40:20.814Z,1.20
2019-04-16T16:42:51.482Z,0.70
2019-04-16T16:45:23.835Z,0.90
2019-04-16T16:47:54.485Z,2.23
2019-04-16T16:50:25.303Z,0.97
2019-04-16T16:53:05.715Z,1.00
2019-04-16T16:55:39.050Z,1.00
2019-04-16T16:58:28.926Z,0.90
2019-04-16T17:01:17.894Z,0.67
2019-04-16T17:03:52.859Z,1.10
2019-04-16T17:06:23.707Z,0.90
2019-04-16T17:08:54.389Z,1.30
2019-04-16T17:11:25.157Z,1.27
2019-04-16T17:13:58.080Z,1.20
2019-04-16T17:16:28.275Z,1.00
2019-04-16T17:18:58.958Z,0.87
2019-04-16T17:21:29.615Z,1.17
2019-04-16T17:24:00.495Z,2.13
2019-04-16T17:26:31.172Z,2.10
2019-04-16T17:29:02.159Z,2.33
2019-04-16T17:31:35.861Z,2.87
2019-04-16T17:34:05.515Z,1.13
2019-04-16T17:36:37.409Z,1.20
2019-04-16T17:39:10.709Z,1.23
2019-04-16T17:41:49.319Z,1.40
2019-04-16T17:44:37.614Z,1.40
2019-04-16T17:47:42.524Z,0.97
2019-04-16T17:50:32.339Z,1.13
2019-04-16T17:53:16.069Z,1.43
2019-04-16T17:56:04.883Z,1.07
2019-04-16T17:58:42.152Z,1.80
2019-04-16T18:01:44.497Z,1.30
2019-04-16T18:04:33.115Z,1.40
2019-04-16T18:07:21.585Z,4.17
2019-04-16T18:10:11.107Z,1.00
2019-04-16T18:13:06.869Z,0.90
2019-04-16T18:15:43.477Z,2.67
2019-04-16T18:18:24.773Z,2.30
2019-04-16T18:21:32.976Z,1.30
2019-04-16T18:24:25.892Z,1.00
2019-04-16T18:27:14.633Z,1.20
2019-04-16T18:30:16.666Z,1.00
2019-04-16T18:33:09.393Z,1.10
2019-04-16T18:35:46.395Z,1.43
2019-04-16T18:38:39.114Z,1.37
2019-04-16T18:41:27.860Z,1.23
2019-04-16T18:44:33.135Z,1.57
2019-04-16T18:47:26.031Z,1.43
2019-04-16T18:50:01.116Z,1.20
2019-04-16T18:52:32.166Z,2.23
2019-04-16T18:55:03.134Z,1.70
2019-04-16T18:57:38.341Z,3.13
2019-04-16T19:00:28.661Z,0.97
2019-04-16T19:02:58.577Z,1.60
2019-04-16T19:05:30.789Z,1.33
2019-04-16T19:08:01.639Z,1.30
2019-04-16T19:10:33.546Z,1.43
2019-04-16T19:13:09.711Z,2.03
2019-04-16T19:15:37.349Z,1.60
2019-04-16T19:18:18.867Z,1.67
2019-04-16T19:20:42.198Z,1.50
2019-04-16T19:23:14.061Z,2.23
2019-04-16T19:25:44.893Z,1.30
2019-04-16T19:28:15.790Z,2.00
2019-04-16T19:30:46.563Z,3.37
2019-04-16T19:33:17.504Z,2.00
2019-04-16T19:35:50.984Z,2.07
2019-04-16T19:38:21.074Z,3.50
2019-04-16T19:40:52.596Z,2.10
2019-04-16T19:43:23.931Z,2.47
2019-04-16T19:45:55.664Z,2.70
2019-04-16T19:48:35.275Z,2.10
2019-04-16T19:50:59.247Z,2.47
2019-04-16T19:53:29.842Z,3.20
2019-04-16T19:56:00.820Z,1.93
2019-04-16T19:58:31.618Z,3.63
2019-04-16T20:01:02.761Z,2.50
2019-04-16T20:03:33.805Z,2.20
2019-04-16T20:06:04.860Z,1.90
2019-04-16T20:08:39.866Z,1.80
2019-04-16T20:11:08.540Z,1.77
2019-04-16T20:13:39.458Z,2.00
2019-04-16T20:16:10.237Z,2.63
2019-04-16T20:18:50.902Z,1.80
2019-04-16T20:21:14.118Z,1.23
2019-04-16T20:23:45.185Z,2.50
2019-04-16T20:26:16.014Z,2.60
2019-04-16T20:28:48.466Z,2.60
2019-04-16T20:31:19.754Z,1.90
2019-04-16T20:33:50.789Z,3.00
2019-04-16T20:36:22.703Z,2.03
2019-04-16T20:38:54.356Z,1.80
2019-04-16T20:41:25.139Z,2.73
2019-04-16T20:43:56.020Z,2.83
2019-04-16T20:46:26.802Z,2.13
2019-04-16T20:49:08.142Z,2.10
2019-04-16T20:51:30.539Z,3.10
2019-04-16T20:54:01.613Z,3.17
2019-04-16T20:56:32.414Z,2.43
2019-04-16T20:59:05.230Z,2.50
2019-04-16T21:01:37.767Z,1.57
2019-04-16T21:04:08.910Z,2.00
2019-04-16T21:06:41.902Z,2.57
2019-04-16T21:09:12.384Z,1.60
2019-04-16T21:11:43.268Z,1.60
2019-04-16T21:14:14.167Z,2.60
2019-04-16T21:16:45.034Z,3.30
2019-04-16T21:19:23.193Z,1.73
2019-04-16T21:21:48.964Z,2.63
2019-04-16T21:24:20.887Z,2.00
2019-04-16T21:26:51.902Z,2.03
2019-04-16T21:29:33.425Z,2.10
2019-04-16T21:32:02.741Z,2.20
2019-04-16T21:34:36.976Z,2.30
2019-04-16T21:37:19.909Z,2.50
2019-04-16T21:39:56.254Z,3.00
2019-04-16T21:42:28.307Z,4.33
2019-04-16T21:44:59.481Z,1.80
2019-04-16T21:47:30.287Z,3.03
2019-04-16T21:50:01.352Z,2.03
2019-04-16T21:52:32.168Z,1.77
2019-04-16T21:55:04.825Z,2.73
2019-04-16T21:57:35.686Z,2.00
2019-04-16T22:00:10.480Z,2.20
2019-04-16T22:02:43.096Z,2.20
2019-04-16T22:05:16.900Z,1.97
2019-04-16T22:07:46.563Z,2.70
2019-04-16T22:10:17.339Z,2.13
2019-04-16T22:12:48.755Z,2.90
2019-04-16T22:15:22.620Z,1.90
2019-04-16T22:17:52.345Z,2.40
2019-04-16T22:20:23.165Z,2.67
2019-04-16T22:22:54.093Z,3.00
2019-04-16T22:25:26.904Z,2.53
2019-04-16T22:27:58.556Z,2.40
2019-04-16T22:30:29.414Z,2.47
2019-04-16T22:33:05.479Z,2.47
2019-04-16T22:35:32.728Z,3.07
2019-04-16T22:38:03.521Z,2.67
2019-04-16T22:40:56.640Z,2.83
2019-04-16T22:43:52.072Z,2.47
2019-04-16T22:46:30.253Z,2.33
2019-04-16T22:49:01.805Z,2.67
2019-04-16T22:51:32.802Z,2.30
2019-04-16T22:54:03.730Z,2.63
2019-04-16T22:56:51.285Z,3.40
2019-04-16T22:59:22.103Z,2.77
2019-04-16T23:01:53.586Z,2.93
2019-04-16T23:04:26.162Z,2.70
2019-04-16T23:06:57.100Z,3.13
2019-04-16T23:09:29.545Z,3.53
2019-04-16T23:12:00.260Z,4.00
2019-04-16T23:14:31.732Z,3.00
2019-04-16T23:17:03.777Z,2.80
2019-04-16T23:19:34.565Z,3.53
2019-04-16T23:22:05.457Z,3.27
2019-04-16T23:24:36.339Z,2.80
2019-04-16T23:27:07.564Z,3.07
2019-04-16T23:29:38.681Z,2.93
2019-04-16T23:32:09.854Z,4.33
2019-04-16T23:34:40.706Z,2.43
2019-04-16T23:37:11.598Z,3.40
2019-04-16T23:39:42.498Z,2.70
2019-04-16T23:42:13.271Z,3.70
2019-04-16T23:45:05.707Z,2.83
2019-04-16T23:48:01.915Z,5.37
2019-04-16T23:50:51.822Z,2.80
2019-04-16T23:53:50.715Z,3.07
2019-04-16T23:56:28.515Z,2.60
2019-04-16T23:59:12.562Z,3.00
